Time;durP1;ratioP1;P1;durP2;ratioP2;P2;SDS_P1;SDS_P2;PMS_P1;PMS_P2;Temp;Humidity;BMP_temperature;BMP_pressure;BME280_temperature;BME280_humidity;BME280_pressure;Samples;Min_cycle;Max_cycle;Signal;HPM_P1;HPM_P2
2021/12/31 00:00:27;;;;;;;5.97;4.17;;;13.60;36.50;;;;;;5079738;28;20195;-60
2021/12/31 00:02:55;;;;;;;7.30;3.83;;;13.50;99.90;;;;;;5065669;28;20861;-60
2021/12/31 00:05:22;;;;;;;5.23;3.70;;;13.50;99.90;;;;;;5064939;28;20220;-60
2021/12/31 00:07:49;;;;;;;4.27;3.50;;;13.50;86.40;;;;;;5073829;28;20300;-60
2021/12/31 00:10:16;;;;;;;4.37;3.40;;;13.50;1.00;;;;;;5064605;28;20983;-60
2021/12/31 00:12:44;;;;;;;6.13;3.80;;;13.50;1.00;;;;;;5090693;28;20187;-60
2021/12/31 00:15:14;;;;;;;5.53;2.90;;;13.60;1.00;;;;;;5081661;28;20210;-60
2021/12/31 00:17:41;;;;;;;5.53;2.97;;;13.60;1.00;;;;;;5083020;28;20636;-60
2021/12/31 00:20:16;;;;;;;5.97;2.97;;;13.60;1.00;;;;;;5063676;28;20194;-60
2021/12/31 00:23:03;;;;;;;3.58;2.47;;;13.50;1.00;;;;;;5082436;28;20193;-60
2021/12/31 00:25:32;;;;;;;7.23;2.73;;;13.50;1.00;;;;;;5080114;28;20673;-60
2021/12/31 00:27:59;;;;;;;3.63;2.10;;;13.60;1.00;;;;;;5082379;28;20559;-60
2021/12/31 00:30:27;;;;;;;7.93;2.70;;;13.60;1.00;;;;;;5080918;28;20206;-60
2021/12/31 00:32:54;;;;;;;4.10;2.20;;;13.70;1.00;;;;;;5082802;28;20583;-60
2021/12/31 00:35:21;;;;;;;3.53;2.57;;;13.70;1.00;;;;;;5079318;28;20238;-61
2021/12/31 00:37:48;;;;;;;5.70;2.10;;;13.70;1.00;;;;;;5081247;28;20655;-61
2021/12/31 00:40:17;;;;;;;5.70;2.63;;;13.70;1.00;;;;;;5065504;28;20695;-61
2021/12/31 00:42:45;;;;;;;5.87;2.43;;;13.70;1.00;;;;;;5049458;28;20198;-60
2021/12/31 00:45:15;;;;;;;3.78;2.20;;;13.70;1.00;;;;;;5061754;28;20568;-61
2021/12/31 00:47:42;;;;;;;4.80;2.00;;;13.70;99.90;;;;;;5080464;28;20198;-61
2021/12/31 00:50:10;;;;;;;4.65;1.88;;;13.70;99.90;;;;;;5078396;28;20228;-61
2021/12/31 00:52:37;;;;;;;5.65;2.33;;;13.70;99.90;;;;;;5078874;28;20286;-61
2021/12/31 00:55:06;;;;;;;4.05;2.05;;;13.80;99.90;;;;;;5079507;28;20714;-60
2021/12/31 00:57:40;;;;;;;4.67;2.17;;;13.80;99.90;;;;;;5080408;28;20935;-60
2021/12/31 01:00:12;;;;;;;7.10;2.15;;;13.80;99.90;;;;;;5063768;28;20191;-61
2021/12/31 01:02:40;;;;;;;4.27;1.90;;;13.90;99.90;;;;;;5058904;28;20601;-61
2021/12/31 01:05:08;;;;;;;5.28;2.10;;;13.80;99.90;;;;;;5077975;28;20252;-60
2021/12/31 01:07:35;;;;;;;3.72;1.90;;;13.90;99.90;;;;;;5074800;28;20198;-60
2021/12/31 01:10:04;;;;;;;4.23;2.17;;;13.90;99.90;;;;;;5080427;28;20230;-60
2021/12/31 01:12:31;;;;;;;7.45;2.35;;;13.90;99.90;;;;;;5059472;28;20253;-60
2021/12/31 01:15:03;;;;;;;8.18;2.50;;;14.00;83.10;;;;;;5061240;28;20359;-60
2021/12/31 01:20:17;;;;;;;3.97;2.60;;;14.00;70.10;;;;;;5081878;28;20264;-60
2021/12/31 01:22:44;;;;;;;5.80;1.92;;;13.90;90.60;;;;;;5065587;28;20328;-60
2021/12/31 01:25:12;;;;;;;6.90;3.03;;;13.90;91.20;;;;;;5064612;28;20296;-61
2021/12/31 01:27:39;;;;;;;7.53;2.47;;;14.00;52.40;;;;;;5061297;28;20260;-60
2021/12/31 01:30:12;;;;;;;6.65;2.75;;;14.00;10.60;;;;;;5084814;28;20291;-60
2021/12/31 01:32:40;;;;;;;7.97;2.30;;;14.10;1.00;;;;;;5062476;28;20250;-60
2021/12/31 01:35:10;;;;;;;5.85;2.65;;;14.00;29.30;;;;;;5084259;28;20317;-60
2021/12/31 01:37:38;;;;;;;8.05;2.92;;;14.00;1.00;;;;;;5063885;28;20585;-60
2021/12/31 01:40:09;;;;;;;6.93;3.60;;;14.00;1.00;;;;;;5082191;28;20191;-60
2021/12/31 01:42:37;;;;;;;7.32;3.22;;;14.00;1.00;;;;;;5068353;28;20847;-60
2021/12/31 01:45:06;;;;;;;10.38;5.55;;;14.00;1.00;;;;;;5084730;28;20198;-60
2021/12/31 01:47:55;;;;;;;6.30;2.53;;;14.10;1.00;;;;;;5085527;28;20215;-61
2021/12/31 01:50:29;;;;;;;3.50;2.05;;;14.10;1.00;;;;;;5086494;28;20194;-61
2021/12/31 01:52:57;;;;;;;7.20;2.05;;;14.10;1.00;;;;;;5085325;28;20603;-61
2021/12/31 01:55:27;;;;;;;3.53;1.90;;;14.10;1.00;;;;;;5086210;28;20259;-60
2021/12/31 01:57:55;;;;;;;4.97;2.28;;;14.10;1.00;;;;;;5087513;28;20194;-60
2021/12/31 02:00:23;;;;;;;4.30;1.80;;;14.20;1.00;;;;;;5086015;28;20195;-60
2021/12/31 02:02:51;;;;;;;6.35;2.13;;;14.10;1.00;;;;;;5070619;28;20256;-60
2021/12/31 02:05:21;;;;;;;2.28;1.52;;;14.10;1.00;;;;;;5070111;28;20198;-60
2021/12/31 02:07:51;;;;;;;4.90;2.10;;;14.10;1.00;;;;;;5089219;28;20186;-60
2021/12/31 02:10:18;;;;;;;4.07;1.77;;;14.10;1.00;;;;;;5087187;28;20588;-60
2021/12/31 02:12:46;;;;;;;5.20;1.70;;;14.20;1.00;;;;;;5070321;28;20263;-60
2021/12/31 02:15:18;;;;;;;11.13;1.90;;;14.10;1.00;;;;;;5068865;28;20218;-61
2021/12/31 02:17:48;;;;;;;4.90;1.80;;;14.10;1.00;;;;;;5066933;28;20260;-60
2021/12/31 02:20:16;;;;;;;2.92;1.60;;;14.10;1.00;;;;;;5089602;28;20218;-60
2021/12/31 02:22:51;;;;;;;4.07;1.58;;;14.10;1.00;;;;;;5089516;28;20206;-61
2021/12/31 02:25:20;;;;;;;4.13;1.48;;;14.10;1.00;;;;;;5071083;28;20209;-60
2021/12/31 02:27:46;;;;;;;5.82;1.77;;;14.20;1.00;;;;;;5087025;28;20660;-61
2021/12/31 02:30:14;;;;;;;5.63;1.98;;;14.20;1.00;;;;;;5067974;28;20211;-60
2021/12/31 02:32:41;;;;;;;5.38;1.88;;;14.20;1.00;;;;;;5089448;28;20253;-60
2021/12/31 02:35:10;;;;;;;3.10;1.48;;;14.20;1.00;;;;;;5088049;28;20198;-60
2021/12/31 02:37:37;;;;;;;3.15;1.70;;;14.30;1.00;;;;;;5089870;28;20243;-60
2021/12/31 02:40:08;;;;;;;6.25;1.70;;;14.20;1.00;;;;;;5085610;28;20190;-60
2021/12/31 02:42:35;;;;;;;2.92;1.50;;;14.30;1.00;;;;;;5066292;28;20241;-60
2021/12/31 02:45:06;;;;;;;3.20;1.85;;;14.30;1.00;;;;;;5088108;28;20251;-60
2021/12/31 02:47:46;;;;;;;2.33;1.50;;;14.40;1.00;;;;;;5071323;28;20201;-60
2021/12/31 02:50:18;;;;;;;4.60;1.60;;;14.40;1.00;;;;;;5087599;28;20205;-60
2021/12/31 02:52:46;;;;;;;3.25;1.80;;;14.30;1.00;;;;;;5070833;28;20252;-60
2021/12/31 02:55:17;;;;;;;4.80;2.00;;;14.40;1.00;;;;;;5088543;28;20837;-60
2021/12/31 02:57:44;;;;;;;8.65;1.75;;;14.30;1.00;;;;;;5089093;28;20246;-60
2021/12/31 03:00:12;;;;;;;2.78;1.48;;;14.30;1.00;;;;;;5088898;28;20557;-61
2021/12/31 03:02:41;;;;;;;3.72;1.70;;;14.40;1.00;;;;;;5089354;28;20202;-60
2021/12/31 03:05:08;;;;;;;3.00;1.40;;;14.40;1.00;;;;;;5063491;28;20190;-61
2021/12/31 03:07:37;;;;;;;6.10;1.90;;;14.30;1.00;;;;;;5089054;28;20600;-61
2021/12/31 03:10:06;;;;;;;3.15;1.83;;;14.30;1.00;;;;;;5089609;28;20186;-60
2021/12/31 03:12:33;;;;;;;2.80;1.33;;;14.30;1.00;;;;;;5087498;28;20206;-60
2021/12/31 03:15:01;;;;;;;3.72;1.52;;;14.30;1.00;;;;;;5084613;28;20315;-60
2021/12/31 03:17:29;;;;;;;3.95;1.85;;;14.30;1.00;;;;;;5071160;28;20226;-60
2021/12/31 03:20:08;;;;;;;4.20;1.80;;;14.20;1.00;;;;;;5068290;28;20239;-61
2021/12/31 03:22:35;;;;;;;3.90;1.33;;;14.20;1.00;;;;;;5089117;28;20245;-60
2021/12/31 03:25:03;;;;;;;3.80;1.35;;;14.20;1.00;;;;;;5052013;28;20198;-60
2021/12/31 03:27:33;;;;;;;4.57;1.80;;;14.20;1.00;;;;;;5087603;28;20186;-60
2021/12/31 03:30:00;;;;;;;3.03;1.65;;;14.20;1.00;;;;;;5086915;28;20273;-60
2021/12/31 03:32:29;;;;;;;4.13;1.98;;;14.20;1.00;;;;;;5086593;28;20266;-60
2021/12/31 03:34:57;;;;;;;3.35;1.77;;;14.10;1.00;;;;;;5087492;28;20248;-60
2021/12/31 03:37:24;;;;;;;5.18;1.73;;;14.10;1.00;;;;;;5054161;28;20275;-60
2021/12/31 03:39:50;;;;;;;2.95;1.52;;;14.10;1.00;;;;;;5070368;28;20198;-60
2021/12/31 03:42:20;;;;;;;3.83;1.55;;;14.10;1.00;;;;;;5068130;28;20254;-60
2021/12/31 03:44:47;;;;;;;2.00;1.33;;;14.10;1.00;;;;;;5086278;28;20199;-61
2021/12/31 03:47:14;;;;;;;2.97;1.60;;;14.10;1.00;;;;;;5069298;28;20198;-60
2021/12/31 03:49:41;;;;;;;3.70;1.80;;;14.10;1.00;;;;;;5066905;28;20669;-60
2021/12/31 03:52:08;;;;;;;6.33;1.47;;;14.10;1.00;;;;;;5086941;28;20528;-61
2021/12/31 03:54:35;;;;;;;3.60;1.50;;;14.10;1.00;;;;;;5087650;28;20948;-61
2021/12/31 03:57:02;;;;;;;4.20;1.60;;;14.00;1.00;;;;;;5089547;28;20247;-62
2021/12/31 03:59:34;;;;;;;4.72;1.55;;;14.10;1.00;;;;;;5070222;28;20230;-62
2021/12/31 04:02:01;;;;;;;4.97;1.50;;;14.10;1.00;;;;;;5070982;28;20221;-61
2021/12/31 04:04:30;;;;;;;3.83;1.45;;;14.20;1.00;;;;;;5088834;28;20720;-61
2021/12/31 04:06:57;;;;;;;4.20;1.52;;;14.20;1.00;;;;;;5086230;28;20235;-60
2021/12/31 04:09:24;;;;;;;3.45;1.40;;;14.20;1.00;;;;;;5088738;28;20240;-61
2021/12/31 04:11:51;;;;;;;4.37;1.57;;;14.20;1.00;;;;;;5067091;28;20202;-62
2021/12/31 04:14:18;;;;;;;4.25;1.70;;;14.20;1.00;;;;;;5062166;28;20195;-61
2021/12/31 04:16:48;;;;;;;2.25;1.30;;;14.20;1.00;;;;;;5085687;28;20198;-61
2021/12/31 04:19:18;;;;;;;7.40;1.65;;;14.20;1.00;;;;;;5084505;28;20198;-61
2021/12/31 04:21:48;;;;;;;4.70;1.52;;;14.20;1.00;;;;;;5084778;28;20225;-61
2021/12/31 04:24:28;;;;;;;3.13;1.40;;;14.20;1.00;;;;;;5087180;28;20247;-61
2021/12/31 04:26:56;;;;;;;2.50;1.40;;;14.20;1.00;;;;;;5069650;28;20434;-61
2021/12/31 04:29:23;;;;;;;3.60;1.40;;;14.20;1.00;;;;;;5082973;28;20197;-60
2021/12/31 04:31:50;;;;;;;5.15;1.55;;;14.20;1.00;;;;;;5085774;28;20286;-61
2021/12/31 04:34:17;;;;;;;3.47;1.40;;;14.20;1.00;;;;;;5084734;28;20900;-60
2021/12/31 04:36:46;;;;;;;2.80;1.60;;;14.20;1.00;;;;;;5087495;28;20599;-61
2021/12/31 04:39:13;;;;;;;3.22;1.70;;;14.10;1.00;;;;;;5068820;28;20194;-61
2021/12/31 04:41:40;;;;;;;1.38;1.10;;;14.10;1.00;;;;;;5086613;28;20224;-60
2021/12/31 04:44:07;;;;;;;2.17;1.48;;;14.10;1.00;;;;;;5085709;28;20618;-60
2021/12/31 04:46:34;;;;;;;3.35;1.70;;;14.10;1.00;;;;;;5088308;28;20194;-60
2021/12/31 04:49:02;;;;;;;2.28;1.58;;;14.20;1.00;;;;;;5050482;28;20251;-59
2021/12/31 04:51:31;;;;;;;3.17;1.60;;;14.20;1.00;;;;;;5087822;28;20610;-60
2021/12/31 04:53:58;;;;;;;4.20;1.48;;;14.20;1.00;;;;;;5067129;28;20198;-59
2021/12/31 04:56:26;;;;;;;3.28;1.42;;;14.20;1.00;;;;;;5087370;28;20750;-59
2021/12/31 04:58:53;;;;;;;5.90;2.80;;;14.10;1.00;;;;;;5054848;28;20235;-60
2021/12/31 05:01:21;;;;;;;3.58;1.77;;;14.00;1.00;;;;;;5068814;28;20746;-60
2021/12/31 05:03:49;;;;;;;3.28;1.60;;;14.10;1.00;;;;;;5087096;28;21476;-59
2021/12/31 05:06:16;;;;;;;3.63;1.60;;;14.10;1.00;;;;;;5087105;28;20715;-60
2021/12/31 05:08:43;;;;;;;3.00;1.45;;;14.00;1.00;;;;;;5087584;28;21147;-60
2021/12/31 05:11:10;;;;;;;6.47;1.80;;;14.10;1.00;;;;;;5086937;28;20190;-59
2021/12/31 05:13:40;;;;;;;3.75;2.00;;;14.10;99.90;;;;;;5085487;28;20251;-60
2021/12/31 05:16:07;;;;;;;2.10;1.40;;;14.10;1.00;;;;;;5069136;28;20259;-60
2021/12/31 05:18:39;;;;;;;5.18;2.03;;;14.00;1.00;;;;;;5087303;28;20627;-62
2021/12/31 05:21:06;;;;;;;5.50;3.17;;;14.00;1.00;;;;;;5083846;28;20233;-60
2021/12/31 05:23:33;;;;;;;12.32;9.10;;;14.10;99.90;;;;;;5086449;28;20229;-59
2021/12/31 05:26:00;;;;;;;6.95;3.17;;;14.10;1.00;;;;;;5088135;28;20242;-60
2021/12/31 05:28:27;;;;;;;5.88;4.68;;;14.10;99.90;;;;;;5088116;28;20229;-60
2021/12/31 05:30:59;;;;;;;3.13;1.60;;;14.10;99.90;;;;;;5066520;28;20201;-60
2021/12/31 05:33:26;;;;;;;2.75;1.70;;;14.10;1.00;;;;;;5068583;28;20669;-61
2021/12/31 05:35:56;;;;;;;2.97;1.60;;;14.00;1.00;;;;;;5090480;28;20599;-61
2021/12/31 05:38:23;;;;;;;4.55;1.50;;;14.10;1.00;;;;;;5065417;28;20243;-61
2021/12/31 05:40:50;;;;;;;5.20;1.50;;;14.10;99.90;;;;;;5090352;28;20191;-59
2021/12/31 05:43:17;;;;;;;2.60;1.27;;;14.00;1.00;;;;;;5091063;28;20205;-59
2021/12/31 05:45:45;;;;;;;5.03;1.77;;;14.10;99.90;;;;;;5087844;28;20226;-60
2021/12/31 05:48:24;;;;;;;3.13;1.38;;;14.00;1.00;;;;;;5090860;28;20670;-64
2021/12/31 05:50:51;;;;;;;2.40;1.35;;;14.00;1.00;;;;;;5087966;28;20280;-60
2021/12/31 05:53:18;;;;;;;4.68;1.50;;;13.90;1.00;;;;;;5073617;28;20684;-61
2021/12/31 05:55:45;;;;;;;4.85;1.40;;;13.90;1.00;;;;;;5071977;28;20229;-60
2021/12/31 05:58:13;;;;;;;3.00;1.23;;;13.90;1.00;;;;;;5087863;28;20247;-60
2021/12/31 06:00:42;;;;;;;3.65;1.45;;;13.90;1.00;;;;;;5086921;28;20261;-61
2021/12/31 06:03:09;;;;;;;2.55;1.50;;;13.80;1.00;;;;;;5089044;28;20190;-61
2021/12/31 06:05:36;;;;;;;3.20;1.80;;;13.80;1.00;;;;;;5069180;28;20206;-61
2021/12/31 06:08:04;;;;;;;5.30;2.00;;;13.80;1.00;;;;;;5086848;28;20202;-60
2021/12/31 06:10:39;;;;;;;3.22;1.60;;;13.60;1.00;;;;;;5086581;28;20213;-61
2021/12/31 06:13:06;;;;;;;5.10;1.50;;;13.70;1.00;;;;;;5088992;28;20256;-61
2021/12/31 06:15:34;;;;;;;2.63;1.30;;;13.80;1.00;;;;;;5088508;28;20206;-61
2021/12/31 06:18:01;;;;;;;2.33;1.30;;;13.80;1.00;;;;;;5090333;28;20197;-61
2021/12/31 06:20:31;;;;;;;7.60;2.33;;;13.80;1.00;;;;;;5087746;28;20218;-61
2021/12/31 06:22:58;;;;;;;2.10;1.40;;;13.80;1.00;;;;;;5086984;28;20931;-60
2021/12/31 06:25:26;;;;;;;5.40;1.88;;;13.80;1.00;;;;;;5071877;28;20577;-60
2021/12/31 06:27:53;;;;;;;1.70;1.23;;;13.70;1.00;;;;;;5054153;28;20198;-60
2021/12/31 06:30:20;;;;;;;2.40;1.50;;;13.70;1.00;;;;;;5091608;28;20205;-60
2021/12/31 06:32:47;;;;;;;2.78;1.50;;;13.70;1.00;;;;;;5089900;28;20226;-60
2021/12/31 06:35:14;;;;;;;2.40;1.27;;;13.60;1.00;;;;;;5089514;28;20895;-60
2021/12/31 06:37:41;;;;;;;4.35;1.77;;;13.60;1.00;;;;;;5071128;28;20218;-60
2021/12/31 06:40:11;;;;;;;2.97;1.30;;;13.50;1.00;;;;;;5087769;28;20218;-60
2021/12/31 06:42:38;;;;;;;2.83;1.40;;;13.60;1.00;;;;;;5071970;28;20668;-60
2021/12/31 06:45:05;;;;;;;4.43;1.60;;;13.60;1.00;;;;;;5090315;28;20585;-61
2021/12/31 06:47:33;;;;;;;2.88;1.40;;;13.70;1.00;;;;;;5090619;28;20281;-61
2021/12/31 06:50:06;;;;;;;3.40;1.30;;;13.60;1.00;;;;;;5079417;28;20195;-60
2021/12/31 06:52:38;;;;;;;2.80;1.60;;;13.60;1.00;;;;;;5092423;28;20507;-61
2021/12/31 06:55:06;;;;;;;3.43;1.50;;;13.60;1.00;;;;;;5073760;28;20891;-60
2021/12/31 06:57:36;;;;;;;4.37;1.40;;;13.50;1.00;;;;;;5073903;28;20186;-61
2021/12/31 07:00:06;;;;;;;2.40;1.30;;;13.40;1.00;;;;;;5088951;28;20190;-60
2021/12/31 07:02:33;;;;;;;5.57;1.50;;;13.40;1.00;;;;;;5072917;28;20966;-60
2021/12/31 07:05:00;;;;;;;5.00;1.60;;;13.20;1.00;;;;;;5091318;28;20280;-60
2021/12/31 07:07:27;;;;;;;3.43;1.83;;;13.20;1.00;;;;;;5071185;28;20206;-61
2021/12/31 07:09:54;;;;;;;3.80;1.60;;;13.10;1.00;;;;;;5056472;28;20281;-60
2021/12/31 07:12:54;;;;;;;2.63;1.50;;;13.00;1.00;;;;;;5089901;28;20314;-61
2021/12/31 07:15:31;;;;;;;2.70;1.57;;;12.90;1.00;;;;;;5062308;28;20245;-60
2021/12/31 07:17:58;;;;;;;2.40;1.70;;;12.90;1.00;;;;;;5071275;28;20400;-60
2021/12/31 07:20:25;;;;;;;5.57;2.00;;;12.90;1.00;;;;;;5088614;28;20213;-60
2021/12/31 07:22:55;;;;;;;3.87;1.77;;;12.80;1.00;;;;;;5064395;28;20220;-61
2021/12/31 07:25:22;;;;;;;3.07;1.80;;;12.90;1.00;;;;;;5088560;28;20186;-60
2021/12/31 07:27:50;;;;;;;2.73;1.60;;;12.90;1.00;;;;;;5089781;28;20218;-60
2021/12/31 07:30:20;;;;;;;5.00;1.80;;;13.00;1.00;;;;;;5088265;28;20202;-61
2021/12/31 07:32:50;;;;;;;2.67;1.57;;;13.00;1.00;;;;;;5088855;28;20230;-61
2021/12/31 07:35:17;;;;;;;3.40;1.73;;;13.00;1.00;;;;;;5067562;28;20202;-60
2021/12/31 07:37:44;;;;;;;4.00;2.00;;;13.00;1.00;;;;;;5086053;28;20183;-60
2021/12/31 07:40:12;;;;;;;3.37;2.03;;;13.00;1.00;;;;;;5088174;28;20191;-60
2021/12/31 07:42:40;;;;;;;2.67;1.83;;;13.00;1.00;;;;;;5065026;28;20522;-60
2021/12/31 07:45:07;;;;;;;7.80;5.17;;;13.10;1.00;;;;;;5086608;28;20267;-60
2021/12/31 07:47:34;;;;;;;4.67;3.00;;;13.10;1.00;;;;;;5071583;28;20198;-60
2021/12/31 07:50:07;;;;;;;2.93;1.80;;;13.10;1.00;;;;;;5086864;28;20702;-60
2021/12/31 07:52:34;;;;;;;3.03;1.97;;;13.20;1.00;;;;;;5086785;28;20210;-60
2021/12/31 07:55:01;;;;;;;4.83;1.77;;;13.30;1.00;;;;;;5070572;28;20198;-60
2021/12/31 07:57:28;;;;;;;3.37;1.97;;;13.30;1.00;;;;;;5069197;28;20221;-60
2021/12/31 07:59:55;;;;;;;4.50;1.90;;;13.30;1.00;;;;;;5088419;28;20530;-60
2021/12/31 08:02:22;;;;;;;2.63;1.83;;;13.40;1.00;;;;;;5086257;28;20313;-60
2021/12/31 08:04:49;;;;;;;9.37;1.97;;;13.40;1.00;;;;;;5086310;28;20698;-60
2021/12/31 08:07:18;;;;;;;2.87;1.60;;;13.40;1.00;;;;;;5087697;28;20202;-61
2021/12/31 08:09:50;;;;;;;4.47;2.50;;;13.50;1.00;;;;;;5087818;28;20276;-60
2021/12/31 08:12:40;;;;;;;2.60;1.60;;;13.60;1.00;;;;;;5089114;28;20322;-60
2021/12/31 08:15:07;;;;;;;2.40;1.40;;;13.70;1.00;;;;;;5088607;28;20194;-60
2021/12/31 08:17:34;;;;;;;2.00;1.63;;;13.70;1.00;;;;;;5071027;28;20206;-60
2021/12/31 08:20:01;;;;;;;4.18;1.58;;;13.80;1.00;;;;;;5086818;28;20194;-60
2021/12/31 08:22:29;;;;;;;4.07;1.63;;;13.90;1.00;;;;;;5053497;28;20198;-60
2021/12/31 08:24:56;;;;;;;3.70;1.60;;;13.90;1.00;;;;;;5086379;28;20194;-60
2021/12/31 08:27:23;;;;;;;3.92;1.50;;;14.00;99.90;;;;;;5069349;28;20202;-60
2021/12/31 08:29:49;;;;;;;2.75;1.50;;;14.00;99.90;;;;;;5060833;28;20205;-60
2021/12/31 08:32:17;;;;;;;2.35;1.52;;;14.10;99.90;;;;;;5088069;28;20228;-61
2021/12/31 08:34:44;;;;;;;3.72;1.52;;;14.10;99.90;;;;;;5084536;28;20255;-61
2021/12/31 08:37:12;;;;;;;1.98;1.40;;;14.10;99.90;;;;;;5085926;28;20251;-60
2021/12/31 08:39:39;;;;;;;3.08;1.55;;;14.10;99.90;;;;;;5087168;28;20197;-61
2021/12/31 08:42:06;;;;;;;2.88;1.60;;;14.00;99.90;;;;;;5087382;28;20570;-61
2021/12/31 08:44:33;;;;;;;3.50;1.42;;;14.00;99.90;;;;;;5085867;28;20202;-61
2021/12/31 08:47:00;;;;;;;4.63;1.60;;;14.00;99.90;;;;;;5068862;28;20190;-62
2021/12/31 08:49:27;;;;;;;2.25;1.67;;;13.90;99.90;;;;;;5083933;28;20209;-60
2021/12/31 08:51:54;;;;;;;3.55;1.90;;;13.90;99.90;;;;;;5081780;28;20198;-60
2021/12/31 08:54:23;;;;;;;3.53;1.83;;;13.80;99.90;;;;;;5085595;28;20202;-60
2021/12/31 08:56:50;;;;;;;4.15;1.80;;;13.90;1.00;;;;;;5069839;28;20677;-60
2021/12/31 08:59:21;;;;;;;2.70;1.50;;;13.90;99.90;;;;;;5071607;28;20277;-61
2021/12/31 09:01:48;;;;;;;3.10;1.60;;;13.90;99.90;;;;;;5087837;28;20190;-61
2021/12/31 09:04:15;;;;;;;3.85;1.70;;;13.90;99.90;;;;;;5086025;28;20267;-61
2021/12/31 09:06:42;;;;;;;2.95;1.73;;;14.00;99.90;;;;;;5069492;28;20267;-61
2021/12/31 09:09:09;;;;;;;2.67;1.83;;;14.00;99.90;;;;;;5084140;28;20563;-60
2021/12/31 09:11:36;;;;;;;2.97;1.98;;;14.10;99.90;;;;;;5085641;28;20625;-60
2021/12/31 09:14:03;;;;;;;4.25;2.00;;;14.20;99.90;;;;;;5070551;28;20290;-60
2021/12/31 09:16:30;;;;;;;3.92;1.98;;;14.20;99.90;;;;;;5086758;28;20222;-60
2021/12/31 09:18:56;;;;;;;5.13;2.15;;;14.20;99.90;;;;;;5067101;28;20785;-58
2021/12/31 09:21:24;;;;;;;3.20;1.60;;;14.20;99.90;;;;;;5083006;28;20226;-60
2021/12/31 09:23:50;;;;;;;3.13;1.50;;;14.30;99.90;;;;;;5085424;28;20194;-59
2021/12/31 09:26:18;;;;;;;3.13;1.63;;;14.90;99.90;;;;;;5054354;28;20216;-59
2021/12/31 09:28:45;;;;;;;3.35;1.58;;;16.10;1.00;;;;;;5087886;28;20281;-61
2021/12/31 09:31:13;;;;;;;2.63;1.63;;;16.20;1.00;;;;;;5083882;28;20770;-59
2021/12/31 09:33:40;;;;;;;2.85;1.25;;;15.60;1.00;;;;;;5064408;28;20212;-61
2021/12/31 09:36:08;;;;;;;2.50;1.58;;;15.30;26.90;;;;;;5069613;28;20213;-59
2021/12/31 09:38:35;;;;;;;2.72;1.60;;;15.00;77.30;;;;;;5090208;28;20553;-59
2021/12/31 09:41:02;;;;;;;2.88;1.73;;;15.00;94.60;;;;;;5089450;28;20202;-59
2021/12/31 09:43:29;;;;;;;6.85;3.13;;;14.90;99.90;;;;;;5072071;28;20218;-59
2021/12/31 09:45:56;;;;;;;3.70;2.30;;;15.10;88.20;;;;;;5089625;28;20782;-59
2021/12/31 09:48:24;;;;;;;3.35;1.90;;;15.80;1.00;;;;;;5068922;28;20197;-60
2021/12/31 09:50:55;;;;;;;3.92;1.65;;;15.80;1.00;;;;;;5066510;28;20226;-60
2021/12/31 09:53:26;;;;;;;2.83;1.50;;;15.50;1.00;;;;;;5089761;28;20218;-60
2021/12/31 09:55:54;;;;;;;2.60;1.40;;;15.20;1.00;;;;;;5087601;28;20198;-60
2021/12/31 09:58:24;;;;;;;7.72;1.75;;;15.10;10.30;;;;;;5088435;28;20225;-60
2021/12/31 10:00:57;;;;;;;5.70;1.73;;;15.40;4.30;;;;;;5086828;28;20645;-61
2021/12/31 10:03:30;;;;;;;2.00;1.20;;;15.70;1.00;;;;;;5089248;28;20255;-60
2021/12/31 10:05:59;;;;;;;1.48;1.30;;;16.20;1.00;;;;;;5088358;28;20272;-60
2021/12/31 10:08:29;;;;;;;2.55;1.52;;;17.10;1.00;;;;;;5089442;28;20255;-60
2021/12/31 10:11:06;;;;;;;2.22;1.50;;;16.80;1.00;;;;;;5089109;28;20649;-60
2021/12/31 10:13:36;;;;;;;1.85;1.20;;;16.90;1.00;;;;;;5089917;28;20186;-60
2021/12/31 10:16:03;;;;;;;2.05;1.20;;;17.60;1.00;;;;;;5090062;28;20247;-60
2021/12/31 10:18:38;;;;;;;2.05;1.15;;;17.70;1.00;;;;;;5087980;28;20198;-60
2021/12/31 10:21:05;;;;;;;1.70;1.30;;;16.60;1.00;;;;;;5081691;28;20209;-60
2021/12/31 10:23:38;;;;;;;2.72;1.33;;;15.90;1.00;;;;;;5067955;28;20193;-60
2021/12/31 10:26:07;;;;;;;3.53;1.23;;;15.50;1.00;;;;;;5071772;28;20233;-59
2021/12/31 10:28:35;;;;;;;1.40;1.00;;;15.50;1.00;;;;;;5090488;28;20222;-60
2021/12/31 10:31:15;;;;;;;2.63;1.10;;;15.50;1.00;;;;;;5089907;28;20309;-60
2021/12/31 10:33:44;;;;;;;2.40;1.33;;;15.70;1.00;;;;;;5055658;28;20245;-60
2021/12/31 10:36:35;;;;;;;2.63;1.08;;;15.70;1.00;;;;;;5073074;28;20286;-60
2021/12/31 10:39:16;;;;;;;3.47;1.20;;;15.80;1.00;;;;;;5092535;28;20275;-60
2021/12/31 10:41:44;;;;;;;1.98;0.98;;;15.90;1.00;;;;;;5088636;28;20186;-60
2021/12/31 10:44:11;;;;;;;1.50;1.00;;;15.90;1.00;;;;;;5090812;28;20186;-60
2021/12/31 10:46:38;;;;;;;2.58;1.30;;;16.10;1.00;;;;;;5089139;28;20248;-60
2021/12/31 10:49:09;;;;;;;1.00;0.90;;;16.20;1.00;;;;;;5089673;28;20205;-60
2021/12/31 10:51:46;;;;;;;1.08;1.00;;;16.40;1.00;;;;;;5083948;28;20214;-60
2021/12/31 10:55:15;;;;;;;1.67;1.02;;;16.20;1.00;;;;;;5089177;28;20213;-59
2021/12/31 10:57:09;;;;;;;1.42;1.20;;;16.30;1.00;;;;;;5082258;28;20232;-60
2021/12/31 10:59:37;;;;;;;1.88;1.20;;;16.30;1.00;;;;;;5090448;28;20194;-60
2021/12/31 11:02:06;;;;;;;3.47;1.48;;;16.20;1.00;;;;;;5090152;28;20194;-60
2021/12/31 11:04:34;;;;;;;2.60;1.10;;;16.10;1.00;;;;;;5087605;28;20255;-60
2021/12/31 11:07:02;;;;;;;2.10;1.05;;;15.90;1.00;;;;;;5086674;28;20666;-60
2021/12/31 11:09:31;;;;;;;1.75;1.00;;;15.70;1.00;;;;;;5090129;28;20590;-60
2021/12/31 11:11:59;;;;;;;1.92;1.25;;;15.50;1.00;;;;;;5089884;28;20229;-60
2021/12/31 11:14:27;;;;;;;1.92;1.50;;;15.40;1.00;;;;;;5089809;28;20198;-59
2021/12/31 11:16:54;;;;;;;2.75;1.38;;;15.50;1.00;;;;;;5070394;28;20198;-60
2021/12/31 11:19:22;;;;;;;2.20;1.20;;;15.40;1.00;;;;;;5082648;28;20199;-59
2021/12/31 11:21:51;;;;;;;2.97;1.30;;;15.30;1.00;;;;;;5067383;28;20220;-60
2021/12/31 11:24:36;;;;;;;1.95;1.20;;;15.30;1.00;;;;;;5073176;28;20199;-59
2021/12/31 11:27:31;;;;;;;2.63;1.27;;;15.20;1.00;;;;;;5091241;28;20186;-59
2021/12/31 11:29:59;;;;;;;1.50;1.30;;;15.20;1.00;;;;;;5088092;28;20633;-60
2021/12/31 11:32:45;;;;;;;2.28;1.50;;;15.30;1.00;;;;;;5070166;28;20241;-60
2021/12/31 11:35:30;;;;;;;2.45;1.60;;;15.40;1.00;;;;;;5068177;28;20221;-60
2021/12/31 11:37:58;;;;;;;2.15;1.60;;;15.30;1.00;;;;;;5088573;28;20234;-59
2021/12/31 11:40:30;;;;;;;1.55;1.13;;;15.20;1.00;;;;;;5091717;28;20247;-60
2021/12/31 11:43:17;;;;;;;5.25;1.45;;;15.10;1.00;;;;;;5092093;28;20194;-60
2021/12/31 11:45:44;;;;;;;1.38;1.23;;;14.90;1.00;;;;;;5069871;28;20253;-60
2021/12/31 11:48:46;;;;;;;2.40;1.30;;;14.90;1.00;;;;;;5086561;28;20190;-60
2021/12/31 11:51:21;;;;;;;3.90;1.40;;;14.80;1.00;;;;;;5084256;28;20237;-61
2021/12/31 11:54:00;;;;;;;3.92;1.52;;;14.80;1.00;;;;;;5086062;28;20235;-60
2021/12/31 11:56:36;;;;;;;2.05;1.20;;;14.70;1.00;;;;;;5073783;28;20264;-61
2021/12/31 11:59:11;;;;;;;2.35;1.48;;;14.60;6.90;;;;;;5091163;28;20244;-59
2021/12/31 12:01:52;;;;;;;3.45;1.45;;;14.60;12.20;;;;;;5089175;28;20609;-61
2021/12/31 12:04:23;;;;;;;1.63;1.30;;;14.70;12.00;;;;;;5084792;28;20186;-60
2021/12/31 12:06:55;;;;;;;1.45;1.20;;;14.60;12.80;;;;;;5091232;28;20462;-60
2021/12/31 12:09:37;;;;;;;3.13;1.63;;;14.70;13.70;;;;;;5090861;28;20737;-61
2021/12/31 12:12:13;;;;;;;3.45;1.27;;;14.70;1.00;;;;;;5064862;28;20202;-60
2021/12/31 12:14:46;;;;;;;1.73;1.30;;;14.80;1.00;;;;;;5090885;28;20785;-61
2021/12/31 12:17:36;;;;;;;1.60;1.23;;;14.80;1.00;;;;;;5091652;28;20214;-61
2021/12/31 12:20:03;;;;;;;1.95;1.30;;;14.80;1.00;;;;;;5090593;28;20297;-61
2021/12/31 12:22:35;;;;;;;1.38;1.20;;;14.90;1.00;;;;;;5091412;28;20198;-60
2021/12/31 12:25:11;;;;;;;1.98;1.15;;;14.90;1.00;;;;;;5089263;28;20560;-61
2021/12/31 12:27:39;;;;;;;2.88;1.30;;;15.00;1.00;;;;;;5088114;28;20597;-61
2021/12/31 12:30:10;;;;;;;2.95;1.23;;;15.00;1.00;;;;;;5087072;28;20612;-61
2021/12/31 12:35:13;;;;;;;1.77;1.30;;;15.10;1.00;;;;;;5088636;28;20198;-62
2021/12/31 12:37:41;;;;;;;2.22;1.33;;;15.30;1.00;;;;;;5088328;28;20219;-60
2021/12/31 12:40:10;;;;;;;1.20;1.10;;;15.50;1.00;;;;;;5089873;28;20208;-61
2021/12/31 12:42:44;;;;;;;2.47;1.17;;;15.50;1.00;;;;;;5087723;28;20198;-61
2021/12/31 12:45:11;;;;;;;1.50;1.40;;;15.80;1.00;;;;;;5083922;28;22433;-61
2021/12/31 12:47:38;;;;;;;3.42;1.35;;;15.80;1.00;;;;;;5089963;28;20243;-60
2021/12/31 12:50:09;;;;;;;2.55;1.30;;;16.30;1.00;;;;;;5085615;28;20229;-61
2021/12/31 12:52:36;;;;;;;1.40;1.20;;;16.30;1.00;;;;;;5088336;28;20221;-61
2021/12/31 12:55:12;;;;;;;3.50;1.50;;;16.50;1.00;;;;;;5089137;28;20300;-61
2021/12/31 12:57:40;;;;;;;2.25;1.42;;;16.50;1.00;;;;;;5088676;28;20258;-61
2021/12/31 13:00:09;;;;;;;3.28;1.40;;;16.40;1.00;;;;;;5088583;28;20255;-61
2021/12/31 13:02:43;;;;;;;2.90;1.45;;;16.10;1.00;;;;;;5073184;28;20566;-61
2021/12/31 13:05:14;;;;;;;1.35;1.20;;;15.90;1.00;;;;;;5089228;28;20194;-60
2021/12/31 13:07:51;;;;;;;1.80;1.08;;;15.70;1.00;;;;;;5089198;28;20194;-61
2021/12/31 13:10:28;;;;;;;3.03;1.52;;;15.50;1.00;;;;;;5089989;28;20657;-61
2021/12/31 13:12:56;;;;;;;3.08;1.40;;;15.50;1.00;;;;;;5078974;28;20198;-61